Time;durP1;ratioP1;P1;durP2;ratioP2;P2;SDS_P1;SDS_P2;PMS_P1;PMS_P2;Temp;Humidity;BMP_temperature;BMP_pressure;BME280_temperature;BME280_humidity;BME280_pressure;Samples;Min_cycle;Max_cycle;Signal;HPM_P1;HPM_P2
2023/07/06 00:01:09;;;;;;;14.25;10.57;;;;;;;18.60;76.60;99672.63;5081574;27;20055;-71
2023/07/06 00:03:34;;;;;;;16.88;10.52;;;;;;;18.57;76.40;99682.84;5098822;27;20780;-72
2023/07/06 00:06:00;;;;;;;16.05;11.13;;;;;;;18.56;76.71;99697.34;5117776;27;20054;-71
2023/07/06 00:08:27;;;;;;;14.07;11.88;;;;;;;18.54;76.76;99666.97;5099282;27;20045;-71
2023/07/06 00:10:53;;;;;;;15.90;11.00;;;;;;;18.51;76.52;99670.81;5117397;27;20050;-72
2023/07/06 00:13:22;;;;;;;16.00;11.15;;;;;;;18.48;76.86;99680.13;5098113;27;20412;-71
2023/07/06 00:15:48;;;;;;;13.68;10.98;;;;;;;18.47;76.98;99672.16;5117542;27;20057;-72
2023/07/06 00:18:15;;;;;;;16.00;10.77;;;;;;;18.46;76.69;99665.94;5098637;27;20038;-71
2023/07/06 00:20:40;;;;;;;18.63;10.82;;;;;;;18.45;76.76;99672.31;5098622;27;20050;-72
2023/07/06 00:23:10;;;;;;;15.25;11.13;;;;;;;18.44;76.93;99667.94;5098186;27;20037;-72
2023/07/06 00:25:41;;;;;;;18.80;11.77;;;;;;;18.42;76.94;99691.53;5117581;27;20058;-72
2023/07/06 00:28:11;;;;;;;23.98;16.42;;;;;;;18.39;76.72;99675.69;5081220;27;20043;-71
2023/07/06 00:30:53;;;;;;;14.45;11.40;;;;;;;18.37;76.70;99672.28;5098353;27;20051;-72
2023/07/06 00:33:23;;;;;;;18.73;11.57;;;;;;;18.35;77.04;99679.69;5110539;27;20042;-72
2023/07/06 00:35:49;;;;;;;20.17;12.65;;;;;;;18.32;77.28;99695.34;5117072;27;20053;-71
2023/07/06 00:38:18;;;;;;;13.70;10.85;;;;;;;18.31;77.41;99689.09;5081693;27;20497;-71
2023/07/06 00:40:47;;;;;;;14.27;10.57;;;;;;;18.28;77.79;99673.25;5098510;27;20039;-72
2023/07/06 00:43:15;;;;;;;13.70;11.07;;;;;;;18.27;78.27;99687.72;5080865;27;20402;-71
2023/07/06 00:45:44;;;;;;;14.38;11.60;;;;;;;18.24;78.41;99709.63;5064274;27;20051;-77
2023/07/06 00:48:32;;;;;;;16.08;11.27;;;;;;;18.28;78.57;99691.28;5098302;27;20042;-75
2023/07/06 00:51:07;;;;;;;15.15;11.70;;;;;;;18.23;78.48;99690.88;5098228;27;20042;-75
2023/07/06 00:53:38;;;;;;;15.40;11.18;;;;;;;18.18;78.62;99710.25;5116422;27;20046;-75
2023/07/06 00:56:07;;;;;;;14.45;11.25;;;;;;;18.17;78.50;99691.53;5116988;27;20042;-75
2023/07/06 00:58:43;;;;;;;17.70;12.25;;;;;;;18.16;78.77;99690.69;5116888;27;20046;-75
2023/07/06 01:01:11;;;;;;;17.50;12.73;;;;;;;18.15;78.65;99689.00;5116397;27;20054;-75
2023/07/06 01:03:43;;;;;;;19.30;12.25;;;;;;;18.14;78.80;99687.28;5080051;27;20046;-75
2023/07/06 01:06:50;;;;;;;15.27;11.48;;;;;;;18.20;78.90;99681.25;5116227;27;20046;-75
2023/07/06 01:09:17;;;;;;;16.80;12.30;;;;;;;18.14;78.73;99692.69;5084264;27;20069;-76
2023/07/06 01:11:43;;;;;;;19.33;11.48;;;;;;;18.13;78.96;99709.88;5097918;27;20054;-74
2023/07/06 01:14:12;;;;;;;19.65;13.15;;;;;;;18.12;78.94;99673.09;5093533;27;20054;-73
2023/07/06 01:16:57;;;;;;;20.50;12.27;;;;;;;18.15;79.12;99689.00;5077594;27;20477;-75
2023/07/06 01:19:54;;;;;;;16.57;13.27;;;;;;;18.19;79.35;99684.94;5094073;27;20054;-74
2023/07/06 01:22:31;;;;;;;16.02;12.32;;;;;;;18.14;79.08;99681.91;5095961;27;20054;-72
2023/07/06 01:25:28;;;;;;;16.67;12.07;;;;;;;18.20;78.76;99683.94;5114040;27;20047;-72
2023/07/06 01:28:21;;;;;;;17.85;12.30;;;;;;;18.22;78.71;99679.25;5097142;27;20053;-72
2023/07/06 01:30:50;;;;;;;17.33;11.55;;;;;;;18.14;78.48;99674.66;5097190;27;20039;-72
2023/07/06 01:33:20;;;;;;;15.80;11.85;;;;;;;18.14;79.10;99681.91;5097627;27;20038;-72
2023/07/06 01:36:01;;;;;;;17.98;11.25;;;;;;;18.19;79.04;99690.34;5116412;27;20053;-72
2023/07/06 01:38:26;;;;;;;17.98;12.30;;;;;;;18.14;78.90;99676.50;5116009;27;20035;-71
2023/07/06 01:40:52;;;;;;;17.52;11.07;;;;;;;18.13;78.92;99688.28;5098149;27;20190;-72
2023/07/06 01:43:20;;;;;;;19.92;12.38;;;;;;;18.16;78.96;99690.69;5080676;27;20805;-72
2023/07/06 01:45:47;;;;;;;19.73;11.80;;;;;;;18.15;79.20;99683.59;5099835;27;20057;-72
2023/07/06 01:48:13;;;;;;;16.50;11.35;;;;;;;18.18;79.09;99688.66;5101562;27;20043;-71
2023/07/06 01:50:49;;;;;;;18.98;11.57;;;;;;;18.22;79.27;99684.66;5102421;27;20046;-71
2023/07/06 01:53:33;;;;;;;18.60;12.93;;;;;;;18.31;79.38;99689.09;5102443;27;20401;-72
2023/07/06 01:56:08;;;;;;;19.45;12.77;;;;;;;18.28;78.68;99705.63;5101460;27;20050;-72
2023/07/06 01:58:43;;;;;;;17.13;12.35;;;;;;;18.32;78.18;99712.38;5120410;27;20043;-72
2023/07/06 02:01:26;;;;;;;14.63;11.18;;;;;;;18.35;78.27;99700.44;5102276;27;20054;-72
2023/07/06 02:03:53;;;;;;;16.45;11.98;;;;;;;18.33;78.66;99691.63;5098029;27;20043;-71
2023/07/06 02:06:19;;;;;;;16.52;12.40;;;;;;;18.36;77.91;99723.72;5099752;27;20054;-72
2023/07/06 02:08:46;;;;;;;18.67;13.07;;;;;;;18.37;78.11;99696.56;5081157;27;20046;-71
2023/07/06 02:11:15;;;;;;;15.52;12.20;;;;;;;18.42;78.43;99696.94;5097955;27;20054;-72
2023/07/06 02:13:40;;;;;;;16.60;12.35;;;;;;;18.45;77.78;99695.78;5089156;27;20046;-71
2023/07/06 02:16:07;;;;;;;17.02;11.98;;;;;;;18.46;78.09;99698.31;5097928;27;20047;-72
2023/07/06 02:18:33;;;;;;;15.52;12.13;;;;;;;18.51;78.33;99690.56;5099201;27;20039;-71
2023/07/06 02:20:58;;;;;;;15.07;10.88;;;;;;;18.56;78.30;99694.66;5099379;27;20054;-72
2023/07/06 02:23:24;;;;;;;14.77;11.80;;;;;;;18.62;78.27;99696.78;5097395;27;20034;-71
2023/07/06 02:25:49;;;;;;;17.35;11.90;;;;;;;18.68;78.11;99712.31;5080521;27;20062;-71
2023/07/06 02:28:16;;;;;;;14.38;12.10;;;;;;;18.73;77.87;99689.25;5098854;27;20065;-71
2023/07/06 02:30:44;;;;;;;18.52;12.45;;;;;;;18.82;77.70;99698.22;5081066;27;20067;-72
2023/07/06 02:33:09;;;;;;;16.27;12.05;;;;;;;18.88;77.60;99713.78;5098919;27;20391;-72
2023/07/06 02:35:34;;;;;;;15.80;11.50;;;;;;;18.96;77.53;99700.31;5097121;27;20047;-71
2023/07/06 02:38:00;;;;;;;16.10;12.38;;;;;;;19.02;77.03;99691.56;5097591;27;20050;-71
2023/07/06 02:40:25;;;;;;;17.15;12.65;;;;;;;19.07;76.70;99701.91;5078545;28;20043;-72
2023/07/06 02:42:50;;;;;;;16.88;11.68;;;;;;;19.14;76.82;99708.34;5076919;28;20054;-72
2023/07/06 02:45:17;;;;;;;16.88;12.30;;;;;;;19.19;76.02;99717.63;5089563;27;20038;-71
2023/07/06 02:47:43;;;;;;;19.17;13.52;;;;;;;19.23;75.46;99691.13;5080720;27;20515;-72
2023/07/06 02:50:11;;;;;;;18.85;12.10;;;;;;;19.23;75.44;99704.66;5080607;27;20062;-71
2023/07/06 02:52:38;;;;;;;17.80;12.05;;;;;;;19.26;75.36;99706.19;5080560;27;20047;-72
2023/07/06 02:55:04;;;;;;;20.17;13.32;;;;;;;19.29;75.59;99705.88;5098667;27;20054;-71
2023/07/06 02:57:31;;;;;;;16.10;11.98;;;;;;;19.41;75.49;99696.44;5097199;27;20050;-72
2023/07/06 02:59:56;;;;;;;22.60;12.68;;;;;;;19.48;75.43;99690.25;5098285;27;20054;-72
2023/07/06 03:02:22;;;;;;;16.42;12.68;;;;;;;19.56;75.19;99697.50;5079603;27;20511;-72
2023/07/06 03:04:47;;;;;;;18.27;12.35;;;;;;;19.68;74.82;99698.03;5096428;27;20051;-72
2023/07/06 03:07:12;;;;;;;18.95;12.50;;;;;;;19.76;74.68;99700.75;5097733;27;20043;-72
2023/07/06 03:09:38;;;;;;;18.42;13.25;;;;;;;19.83;74.29;99699.94;5079142;27;20058;-72
2023/07/06 03:12:05;;;;;;;19.73;12.52;;;;;;;19.94;74.48;99709.59;5095998;27;20051;-72
2023/07/06 03:14:32;;;;;;;14.95;11.65;;;;;;;20.05;74.29;99703.00;5097768;27;20039;-71
2023/07/06 03:16:57;;;;;;;18.30;12.98;;;;;;;20.17;73.94;99707.06;5079268;27;20058;-72
2023/07/06 03:19:23;;;;;;;18.30;12.27;;;;;;;20.26;73.64;99709.59;5059012;28;20043;-72
2023/07/06 03:21:49;;;;;;;21.48;12.65;;;;;;;20.38;73.15;99715.53;5058916;28;20050;-70
2023/07/06 03:24:15;;;;;;;16.05;12.98;;;;;;;20.47;72.93;99700.97;5075633;28;20048;-73
2023/07/06 03:26:41;;;;;;;17.80;12.13;;;;;;;20.57;72.61;99708.91;5087622;27;20051;-76
2023/07/06 03:29:08;;;;;;;16.08;12.90;;;;;;;20.68;72.26;99727.50;5097250;27;20035;-74
2023/07/06 03:31:35;;;;;;;18.40;12.43;;;;;;;20.79;71.76;99713.59;5096233;27;20046;-74
2023/07/06 03:34:02;;;;;;;17.00;13.13;;;;;;;20.89;71.73;99713.41;5096209;27;20043;-75
2023/07/06 03:36:28;;;;;;;16.95;13.75;;;;;;;20.99;71.61;99725.72;5096242;27;20409;-76
2023/07/06 03:38:53;;;;;;;15.23;12.15;;;;;;;21.11;71.10;99707.22;5097222;27;20370;-74
2023/07/06 03:41:19;;;;;;;18.52;12.50;;;;;;;21.25;70.82;99665.84;5097262;27;20501;-75
2023/07/06 03:43:45;;;;;;;22.73;11.85;;;;;;;21.37;70.64;99702.41;5096087;27;20035;-74
2023/07/06 03:46:12;;;;;;;17.02;12.00;;;;;;;21.52;70.31;99709.78;5078786;27;20053;-74
2023/07/06 03:48:47;;;;;;;19.55;12.45;;;;;;;21.61;69.74;99717.69;5095825;27;20046;-75
2023/07/06 03:51:13;;;;;;;18.00;12.93;;;;;;;21.76;69.39;99706.94;5078914;27;20073;-75
2023/07/06 03:53:38;;;;;;;17.75;13.13;;;;;;;21.84;69.18;99704.16;5097220;27;20039;-75
2023/07/06 03:56:04;;;;;;;17.63;12.38;;;;;;;21.95;68.75;99711.88;5095893;27;20058;-75
2023/07/06 03:58:29;;;;;;;17.60;11.90;;;;;;;22.08;68.35;99701.28;5078636;27;20417;-76
2023/07/06 04:00:58;;;;;;;18.05;12.15;;;;;;;22.23;68.39;99705.94;5095360;27;20058;-76
2023/07/06 04:03:23;;;;;;;20.25;11.90;;;;;;;22.39;67.89;99709.34;5102789;27;20046;-75
2023/07/06 04:05:48;;;;;;;17.30;12.35;;;;;;;22.60;67.47;99719.50;5117485;27;20057;-76
2023/07/06 04:08:17;;;;;;;17.15;11.90;;;;;;;22.75;66.79;99701.38;5097956;27;20053;-75
2023/07/06 04:10:42;;;;;;;16.77;11.70;;;;;;;22.89;66.63;99704.28;5117631;27;20051;-76
2023/07/06 04:13:10;;;;;;;19.42;12.32;;;;;;;23.05;66.39;99687.78;5081322;27;20047;-76
2023/07/06 04:15:39;;;;;;;16.65;11.82;;;;;;;23.25;65.71;99712.53;5098450;27;20054;-76
2023/07/06 04:18:05;;;;;;;18.95;12.25;;;;;;;23.45;64.94;99689.97;5099251;27;20600;-75
2023/07/06 04:20:32;;;;;;;14.65;11.95;;;;;;;23.59;64.83;99690.97;5117047;27;20038;-76
2023/07/06 04:22:58;;;;;;;17.05;12.40;;;;;;;23.75;64.56;99684.47;5080817;27;20042;-77
2023/07/06 04:25:32;;;;;;;19.27;11.50;;;;;;;23.92;64.08;99679.63;5117279;27;20408;-76
2023/07/06 04:27:59;;;;;;;16.10;11.27;;;;;;;24.07;63.57;99678.50;5117211;27;20053;-76
2023/07/06 04:30:25;;;;;;;18.02;11.73;;;;;;;24.24;63.55;99636.38;5081077;27;20054;-75
2023/07/06 04:32:51;;;;;;;18.58;12.23;;;;;;;24.43;63.21;99692.06;5098422;27;20047;-75
2023/07/06 04:35:18;;;;;;;14.75;10.73;;;;;;;24.59;62.55;99721.75;5117178;27;20046;-75
2023/07/06 04:37:48;;;;;;;13.73;10.68;;;;;;;24.84;62.17;99692.13;5064440;27;20500;-77
2023/07/06 04:40:17;;;;;;;19.38;11.40;;;;;;;25.05;61.49;99693.13;5098172;27;20060;-76
2023/07/06 04:42:44;;;;;;;14.52;11.02;;;;;;;25.25;60.22;99674.97;5116840;27;20396;-76
2023/07/06 04:45:09;;;;;;;15.27;11.90;;;;;;;25.38;59.51;99721.44;5098246;27;20101;-76
2023/07/06 04:47:38;;;;;;;14.48;10.95;;;;;;;25.52;59.23;99711.38;5098382;27;20042;-75
2023/07/06 04:50:09;;;;;;;14.68;10.65;;;;;;;25.74;58.75;99704.78;5116446;27;20047;-75
2023/07/06 04:52:37;;;;;;;12.70;10.15;;;;;;;26.06;57.89;99700.44;5116783;27;20039;-75
2023/07/06 04:55:03;;;;;;;14.90;10.85;;;;;;;26.43;56.62;99698.16;5080381;27;20531;-76
2023/07/06 04:57:29;;;;;;;15.95;11.90;;;;;;;26.79;55.49;99704.03;5098529;27;20049;-76
2023/07/06 04:59:55;;;;;;;16.50;11.48;;;;;;;27.08;54.43;99691.81;5117880;27;20473;-75
2023/07/06 05:02:22;;;;;;;13.20;10.32;;;;;;;27.44;53.92;99686.59;5116456;27;20054;-77
2023/07/06 05:04:48;;;;;;;19.08;11.88;;;;;;;27.65;53.14;99710.13;5097965;27;20062;-76
2023/07/06 05:07:14;;;;;;;14.95;10.43;;;;;;;27.97;52.78;99685.50;5098252;27;20042;-76
2023/07/06 05:09:40;;;;;;;16.20;11.15;;;;;;;28.25;52.25;99677.72;5080686;27;20488;-77
2023/07/06 05:12:07;;;;;;;14.95;10.73;;;;;;;28.48;51.18;99679.84;5098153;27;20054;-77
2023/07/06 05:14:36;;;;;;;16.50;12.10;;;;;;;28.65;50.13;99710.31;5093701;27;20046;-77
2023/07/06 05:17:01;;;;;;;12.10;10.45;;;;;;;28.88;49.81;99681.19;5095945;27;20425;-77
2023/07/06 05:19:27;;;;;;;16.02;10.95;;;;;;;29.19;49.18;99691.19;5095286;27;20046;-75
2023/07/06 05:21:55;;;;;;;13.88;10.82;;;;;;;29.44;49.02;99682.88;5095709;27;20508;-77
2023/07/06 05:24:20;;;;;;;15.25;10.45;;;;;;;29.56;49.07;99674.72;5104868;27;20151;-75
2023/07/06 05:26:45;;;;;;;15.15;10.10;;;;;;;29.69;48.59;99680.00;5115944;27;20049;-76
2023/07/06 05:29:11;;;;;;;14.48;10.63;;;;;;;29.95;48.02;99690.66;5099105;27;20059;-76
2023/07/06 05:31:36;;;;;;;16.17;10.73;;;;;;;30.24;47.59;99675.19;5080846;27;20050;-76
2023/07/06 05:34:01;;;;;;;15.35;11.60;;;;;;;30.44;46.52;99677.59;5116025;27;20043;-76
2023/07/06 05:36:26;;;;;;;13.65;10.57;;;;;;;30.56;45.60;99692.25;5080123;27;20051;-77
2023/07/06 05:38:51;;;;;;;15.57;10.68;;;;;;;30.67;45.27;99672.16;5116184;27;20038;-76
2023/07/06 05:41:18;;;;;;;14.88;9.85;;;;;;;30.89;45.01;99679.78;5115634;27;20046;-77
2023/07/06 05:43:43;;;;;;;14.65;9.02;;;;;;;31.12;43.97;99668.78;5076496;28;20055;-75
2023/07/06 05:46:08;;;;;;;13.15;9.02;;;;;;;31.38;43.24;99665.47;5097526;27;20047;-77
2023/07/06 05:48:34;;;;;;;13.45;8.70;;;;;;;31.52;42.88;99612.81;5097477;27;20046;-76
2023/07/06 05:50:59;;;;;;;12.25;8.75;;;;;;;31.54;42.30;99605.97;5063293;27;20058;-77
2023/07/06 05:53:24;;;;;;;14.70;9.63;;;;;;;31.61;42.11;99606.66;5097770;27;20043;-77
2023/07/06 05:55:50;;;;;;;9.98;8.07;;;;;;;31.79;41.67;99599.28;5098096;27;20390;-76
2023/07/06 05:58:16;;;;;;;9.23;7.93;;;;;;;32.09;40.58;99595.13;5097493;27;20046;-76
2023/07/06 06:01:06;;;;;;;12.68;8.63;;;;;;;32.23;40.54;99603.94;5116031;27;20039;-75
2023/07/06 06:03:32;;;;;;;10.35;8.18;;;;;;;32.29;39.86;99640.72;5097263;27;20513;-75
2023/07/06 06:05:58;;;;;;;13.35;9.00;;;;;;;32.71;38.89;99632.88;5115962;27;20050;-74
2023/07/06 06:08:24;;;;;;;11.27;8.35;;;;;;;33.06;38.31;99635.28;5079900;27;20043;-77
2023/07/06 06:10:50;;;;;;;11.05;8.13;;;;;;;33.50;37.55;99642.47;5115830;27;20054;-73
2023/07/06 06:13:17;;;;;;;11.02;8.35;;;;;;;34.02;36.98;99666.00;5097062;27;20440;-75
2023/07/06 06:15:42;;;;;;;9.77;8.40;;;;;;;34.11;35.53;99645.03;5098006;27;20400;-78
2023/07/06 06:18:09;;;;;;;9.57;8.07;;;;;;;34.18;34.51;99637.38;5116735;27;20046;-76
2023/07/06 06:20:36;;;;;;;10.02;7.90;;;;;;;34.50;34.22;99645.69;5117544;27;20049;-77
2023/07/06 06:23:02;;;;;;;10.85;7.95;;;;;;;34.71;33.87;99663.25;5116647;27;20043;-76
2023/07/06 06:25:27;;;;;;;9.98;7.85;;;;;;;35.17;32.97;99661.63;5097558;27;20505;-78
2023/07/06 06:27:53;;;;;;;10.15;8.38;;;;;;;36.09;32.67;99588.66;5077714;28;20043;-78
2023/07/06 06:30:19;;;;;;;8.77;7.82;;;;;;;36.87;31.03;99591.91;5077792;28;20051;-76
2023/07/06 06:32:44;;;;;;;9.77;8.13;;;;;;;37.02;30.49;99588.25;5080653;27;20043;-77
2023/07/06 06:35:23;;;;;;;8.82;7.82;;;;;;;36.83;29.39;99595.53;5099629;27;20042;-75
2023/07/06 06:37:48;;;;;;;11.98;8.55;;;;;;;36.69;31.02;99598.91;5099782;27;20047;-76
2023/07/06 06:40:14;;;;;;;10.60;8.20;;;;;;;36.28;30.30;99628.66;5089292;27;20051;-77
2023/07/06 06:42:40;;;;;;;9.73;8.10;;;;;;;35.95;30.96;99649.44;5120779;27;20038;-77
2023/07/06 06:45:06;;;;;;;9.02;8.00;;;;;;;35.82;30.64;99635.25;5100383;27;20055;-77
2023/07/06 06:47:32;;;;;;;11.85;8.65;;;;;;;34.74;31.86;99662.75;5120267;27;20039;-78
2023/07/06 06:49:57;;;;;;;12.25;8.60;;;;;;;34.79;31.97;99644.22;5081376;27;20516;-76
2023/07/06 06:52:23;;;;;;;11.05;8.80;;;;;;;35.15;32.13;99641.66;5099317;27;20043;-78
2023/07/06 06:54:50;;;;;;;9.95;8.38;;;;;;;34.75;31.81;99636.72;5080485;27;20525;-76
2023/07/06 06:57:20;;;;;;;10.35;9.00;;;;;;;34.55;31.97;99642.94;5081016;27;20386;-75
2023/07/06 06:59:47;;;;;;;12.05;8.60;;;;;;;34.13;32.63;99649.22;5080843;27;20046;-76
2023/07/06 07:02:12;;;;;;;11.20;9.13;;;;;;;34.09;32.95;99650.84;5100467;27;20417;-76
2023/07/06 07:04:38;;;;;;;10.30;9.13;;;;;;;34.90;32.32;99654.28;5100429;27;20050;-77
2023/07/06 07:07:04;;;;;;;25.40;21.33;;;;;;;36.14;31.16;99655.28;5119583;27;20212;-78
2023/07/06 07:09:29;;;;;;;10.85;9.23;;;;;;;37.23;29.55;99639.06;5118675;27;20039;-76
2023/07/06 07:11:55;;;;;;;12.85;8.48;;;;;;;38.10;28.15;99643.88;5118203;27;20043;-77
2023/07/06 07:14:20;;;;;;;10.77;9.25;;;;;;;38.23;27.76;99592.25;5100869;27;20405;-75
2023/07/06 07:16:45;;;;;;;10.95;8.50;;;;;;;38.04;27.66;99610.75;5119297;27;20043;-75
2023/07/06 07:19:10;;;;;;;11.23;9.23;;;;;;;38.18;27.74;99622.91;5100862;27;20046;-73
2023/07/06 07:21:35;;;;;;;11.23;9.10;;;;;;;37.49;28.13;99615.56;5100144;27;20515;-75
2023/07/06 07:24:01;;;;;;;13.95;8.48;;;;;;;37.05;28.87;99612.69;5099263;27;20043;-74
2023/07/06 07:26:29;;;;;;;12.32;9.75;;;;;;;37.25;28.19;99617.38;5118714;27;20408;-76
2023/07/06 07:28:54;;;;;;;9.80;8.80;;;;;;;37.39;27.64;99622.00;5082708;27;20054;-75
2023/07/06 07:31:21;;;;;;;11.18;8.80;;;;;;;37.97;27.88;99621.41;5118928;27;20042;-77
2023/07/06 07:33:47;;;;;;;10.80;8.73;;;;;;;38.93;26.99;99623.31;5119051;27;20041;-71
2023/07/06 07:36:14;;;;;;;10.95;8.95;;;;;;;38.84;26.90;99627.88;5100235;27;20043;-69
2023/07/06 07:38:39;;;;;;;9.93;8.85;;;;;;;39.62;26.59;99629.47;5118206;27;20042;-70
2023/07/06 07:41:07;;;;;;;10.15;9.02;;;;;;;39.97;25.62;99628.09;5117116;27;20408;-69
2023/07/06 07:43:35;;;;;;;10.73;8.52;;;;;;;39.61;25.50;99638.97;5116849;27;20039;-69
2023/07/06 07:46:04;;;;;;;15.80;10.15;;;;;;;39.20;25.79;99637.50;5099604;27;20046;-69
2023/07/06 07:48:32;;;;;;;10.82;9.18;;;;;;;39.49;25.95;99634.66;5098319;27;20042;-70
2023/07/06 07:51:01;;;;;;;11.88;9.50;;;;;;;40.58;25.39;99631.53;5098623;27;20051;-70
2023/07/06 07:53:29;;;;;;;13.27;9.93;;;;;;;41.11;23.59;99631.09;5117813;27;20046;-69
2023/07/06 07:55:56;;;;;;;14.65;10.77;;;;;;;41.55;22.92;99638.84;5117625;27;20047;-70
2023/07/06 07:58:24;;;;;;;10.70;9.60;;;;;;;41.34;22.39;99638.44;5117605;27;20049;-69
2023/07/06 08:00:50;;;;;;;13.43;10.30;;;;;;;40.72;23.50;99640.00;5098356;27;20047;-70
2023/07/06 08:03:16;;;;;;;11.68;10.50;;;;;;;39.57;24.72;99641.50;5098969;27;20794;-69
2023/07/06 08:05:42;;;;;;;14.18;9.60;;;;;;;38.48;27.11;99636.59;5117550;27;20042;-70
2023/07/06 08:08:10;;;;;;;15.55;9.70;;;;;;;38.36;27.62;99636.16;5098303;27;20042;-70
2023/07/06 08:10:36;;;;;;;10.57;9.45;;;;;;;38.54;27.82;99631.81;5117170;27;20416;-70
2023/07/06 08:13:03;;;;;;;13.13;10.77;;;;;;;37.40;30.79;99634.81;5081443;27;20051;-69
2023/07/06 08:15:29;;;;;;;15.90;10.40;;;;;;;36.66;30.89;99668.91;5098345;27;20042;-69
2023/07/06 08:17:59;;;;;;;11.40;9.93;;;;;;;36.25;31.21;99664.47;5117109;27;20049;-69
2023/07/06 08:20:25;;;;;;;11.75;10.55;;;;;;;36.69;30.42;99670.28;5098763;27;20062;-69
2023/07/06 08:22:51;;;;;;;11.52;10.13;;;;;;;36.55;30.19;99628.38;5098457;27;20049;-69
2023/07/06 08:25:16;;;;;;;12.10;10.20;;;;;;;36.88;30.18;99623.31;5116822;27;20042;-69
2023/07/06 08:27:42;;;;;;;12.40;10.63;;;;;;;36.52;30.37;99633.63;5116930;27;20039;-69
2023/07/06 08:30:07;;;;;;;12.65;10.93;;;;;;;35.54;32.19;99634.63;5098225;27;20039;-69
2023/07/06 08:32:33;;;;;;;12.98;10.73;;;;;;;34.81;33.23;99630.94;5116910;27;20046;-69
2023/07/06 08:35:01;;;;;;;15.32;9.70;;;;;;;34.41;33.62;99620.44;5098380;27;20107;-69
2023/07/06 08:37:28;;;;;;;11.02;9.65;;;;;;;35.10;32.67;99622.25;5098646;27;20046;-71
2023/07/06 08:39:54;;;;;;;21.55;12.23;;;;;;;36.21;31.16;99619.78;5098388;27;20042;-71
2023/07/06 08:42:21;;;;;;;16.27;9.77;;;;;;;36.97;30.11;99616.88;5098062;27;20085;-70
2023/07/06 08:44:52;;;;;;;11.88;10.65;;;;;;;37.66;30.33;99632.75;5116478;27;20054;-70
2023/07/06 08:47:18;;;;;;;13.52;10.10;;;;;;;38.31;27.77;99619.47;5116460;27;20046;-68
2023/07/06 08:49:43;;;;;;;11.73;10.50;;;;;;;38.39;28.42;99621.59;5098010;27;20038;-70
2023/07/06 08:52:13;;;;;;;16.15;10.15;;;;;;;38.86;27.29;99625.63;5097284;27;20051;-71
2023/07/06 08:54:46;;;;;;;12.43;10.77;;;;;;;37.99;28.59;99614.41;5115872;27;20356;-71
2023/07/06 08:57:19;;;;;;;13.85;10.88;;;;;;;36.75;29.53;99605.28;5116217;27;20505;-71
2023/07/06 08:59:48;;;;;;;12.70;11.50;;;;;;;35.86;30.93;99662.19;5116441;27;20053;-70
2023/07/06 09:02:16;;;;;;;11.02;9.90;;;;;;;35.57;31.84;99652.63;5116353;27;20857;-70
2023/07/06 09:04:42;;;;;;;11.02;9.93;;;;;;;36.21;31.11;99653.09;5115834;27;20053;-69
2023/07/06 09:07:12;;;;;;;14.05;10.55;;;;;;;37.42;30.25;99665.13;5116182;27;20047;-69
2023/07/06 09:09:40;;;;;;;13.45;10.43;;;;;;;37.99;29.59;99606.06;5097448;27;20392;-71
2023/07/06 09:12:33;;;;;;;10.70;9.60;;;;;;;37.65;28.90;99608.81;5096730;27;20440;-73
2023/07/06 09:15:00;;;;;;;10.48;8.68;;;;;;;37.52;29.23;99641.97;5115913;27;20035;-69
2023/07/06 09:17:26;;;;;;;12.27;9.07;;;;;;;37.15;29.34;99646.00;5116035;27;20047;-70
2023/07/06 09:19:53;;;;;;;11.13;9.20;;;;;;;37.00;29.88;99649.69;5097491;27;20034;-69
2023/07/06 09:22:22;;;;;;;10.73;9.70;;;;;;;36.94;30.02;99641.63;5097133;27;20051;-72
2023/07/06 09:24:48;;;;;;;11.18;10.07;;;;;;;36.80;31.06;99633.03;5096187;27;20046;-69
2023/07/06 09:27:23;;;;;;;17.98;9.35;;;;;;;37.46;30.37;99643.13;5115262;27;20420;-70
2023/07/06 09:29:57;;;;;;;10.90;9.80;;;;;;;38.64;29.30;99591.88;5077451;27;20038;-69
2023/07/06 09:32:23;;;;;;;11.32;10.05;;;;;;;38.90;28.37;99579.31;5094625;27;20050;-69
2023/07/06 09:34:55;;;;;;;10.73;9.73;;;;;;;38.85;27.68;99591.34;5113655;27;20505;-69
2023/07/06 09:37:22;;;;;;;11.55;9.35;;;;;;;39.14;27.31;99584.91;5112286;27;20065;-69
2023/07/06 09:40:17;;;;;;;11.55;10.35;;;;;;;40.86;26.54;99587.69;5094056;27;20038;-71
2023/07/06 09:42:44;;;;;;;10.05;9.15;;;;;;;41.34;24.72;99582.50;5009807;28;20566;-71
2023/07/06 09:45:23;;;;;;;14.38;9.93;;;;;;;42.70;22.25;99594.25;5011721;28;20416;-71
2023/07/06 09:47:55;;;;;;;11.93;10.77;;;;;;;42.57;23.16;99591.56;4994987;28;20415;-71
2023/07/06 09:50:27;;;;;;;12.40;11.30;;;;;;;41.75;23.87;99606.78;5012064;28;20029;-71
2023/07/06 09:52:53;;;;;;;11.27;10.18;;;;;;;42.50;23.83;99594.00;5011761;28;20052;-71
2023/07/06 09:55:29;;;;;;;12.35;11.15;;;;;;;43.61;21.74;99581.53;5011638;28;20037;-71
2023/07/06 09:57:54;;;;;;;12.82;11.63;;;;;;;44.44;21.51;99579.31;5012200;28;20043;-70
2023/07/06 10:00:28;;;;;;;13.15;11.77;;;;;;;45.40;21.82;99581.34;5012208;28;20053;-71
2023/07/06 10:03:25;;;;;;;15.23;13.90;;;;;;;46.20;20.70;99589.66;5011730;28;20056;-70
2023/07/06 10:06:00;;;;;;;14.38;13.15;;;;;;;46.02;20.06;99585.38;5011740;28;20048;-69
2023/07/06 10:08:40;;;;;;;15.15;14.05;;;;;;;46.83;19.86;99573.38;5003641;28;20044;-71
2023/07/06 10:11:34;;;;;;;16.20;15.00;;;;;;;48.71;19.02;99579.03;4998787;28;20531;-71
2023/07/06 10:14:15;;;;;;;18.23;16.83;;;;;;;48.80;17.39;99568.38;5011066;28;20052;-71
2023/07/06 10:16:47;;;;;;;20.58;18.98;;;;;;;49.20;17.19;99573.00;4988291;28;20045;-70
2023/07/06 10:19:23;;;;;;;18.33;17.10;;;;;;;48.97;18.14;99578.50;5068066;27;20065;-71
2023/07/06 10:22:01;;;;;;;19.67;17.95;;;;;;;49.38;17.07;99571.38;5118973;27;20038;-71
2023/07/06 10:24:32;;;;;;;19.92;18.60;;;;;;;48.47;18.09;99567.91;5119183;27;20046;-70
2023/07/06 10:27:02;;;;;;;20.58;18.80;;;;;;;47.41;18.64;99560.75;5116240;27;20037;-70
2023/07/06 10:29:42;;;;;;;18.23;17.02;;;;;;;47.76;19.11;99568.69;5119026;27;20047;-69
2023/07/06 10:32:13;;;;;;;18.55;17.17;;;;;;;48.39;19.01;99559.19;5081970;27;20047;-71
2023/07/06 10:35:05;;;;;;;20.42;18.92;;;;;;;49.00;18.82;99561.56;5091281;27;20046;-72
2023/07/06 10:37:31;;;;;;;;;;;;;;;49.68;19.46;99575.31;5115525;27;20046;-71
2023/07/06 10:40:04;;;;;;;16.48;15.07;;;;;;;44.81;19.05;99563.66;5100776;27;19915;-71
2023/07/06 10:42:31;;;;;;;13.13;11.93;;;;;;;41.31;22.09;99560.72;5118561;27;20424;-71
2023/07/06 10:44:59;;;;;;;12.10;10.82;;;;;;;38.99;24.45;99554.41;5100148;27;20050;-71
2023/07/06 10:47:37;;;;;;;11.40;10.20;;;;;;;37.50;27.43;99552.41;5069777;27;20054;-72
2023/07/06 10:50:08;;;;;;;11.73;9.23;;;;;;;35.75;29.08;99554.25;5117069;27;20038;-71
2023/07/06 10:52:40;;;;;;;11.68;10.13;;;;;;;34.35;31.43;99554.22;5099936;27;20054;-71
2023/07/06 10:55:23;;;;;;;10.93;9.27;;;;;;;33.35;32.50;99548.34;5099442;27;20030;-70
2023/07/06 10:57:54;;;;;;;11.95;9.43;;;;;;;32.14;33.57;99538.38;5099780;27;20405;-71
2023/07/06 11:00:28;;;;;;;15.27;10.13;;;;;;;30.94;36.39;99544.97;5103893;27;20050;-71
2023/07/06 11:02:56;;;;;;;12.40;8.98;;;;;;;29.80;38.06;99546.44;5098262;27;20046;-71
2023/07/06 11:05:31;;;;;;;9.95;8.63;;;;;;;29.41;38.53;99539.69;5112233;27;20433;-71
2023/07/06 11:08:00;;;;;;;10.15;8.95;;;;;;;28.69;38.54;99546.91;5117614;27;20050;-71
2023/07/06 11:10:31;;;;;;;12.75;9.05;;;;;;;28.22;40.52;99532.84;5099550;27;20713;-71
2023/07/06 11:13:06;;;;;;;11.52;9.02;;;;;;;28.11;41.38;99536.31;5095505;27;20050;-72
2023/07/06 11:15:48;;;;;;;11.13;8.95;;;;;;;27.87;43.04;99528.97;5117770;27;20053;-71
2023/07/06 11:18:17;;;;;;;10.68;8.98;;;;;;;27.55;42.44;99537.22;5114937;27;20035;-70
2023/07/06 11:21:07;;;;;;;12.75;9.10;;;;;;;27.24;44.87;99531.72;5098497;27;20039;-70
2023/07/06 11:23:41;;;;;;;10.82;9.07;;;;;;;27.35;44.83;99528.28;5061199;27;20503;-69
2023/07/06 11:26:43;;;;;;;12.23;9.75;;;;;;;27.55;45.12;99531.72;5080622;27;20503;-70
2023/07/06 11:29:10;;;;;;;15.45;8.75;;;;;;;27.74;43.17;99521.69;5103046;27;20043;-71